createdAt,value
2019-02-20T00:01:54.161Z,18.53
2019-02-20T00:04:23.848Z,19.70
2019-02-20T00:06:53.515Z,20.63
2019-02-20T00:09:25.073Z,19.90
2019-02-20T00:11:54.629Z,19.80
2019-02-20T00:14:25.001Z,19.47
2019-02-20T00:16:54.714Z,20.30
2019-02-20T00:19:24.986Z,21.00
2019-02-20T00:21:54.687Z,20.90
2019-02-20T00:24:24.190Z,19.93
2019-02-20T00:26:53.862Z,18.97
2019-02-20T00:29:24.067Z,19.03
2019-02-20T00:31:54.004Z,19.20
2019-02-20T00:34:24.252Z,19.03
2019-02-20T00:36:56.687Z,18.90
2019-02-20T00:39:30.687Z,19.67
2019-02-20T00:42:00.467Z,19.73
2019-02-20T00:44:58.208Z,20.60
2019-02-20T00:47:58.744Z,20.83
2019-02-20T00:50:30.110Z,20.27
2019-02-20T00:53:05.503Z,20.27
2019-02-20T00:55:35.153Z,18.50
2019-02-20T00:58:05.615Z,19.33
2019-02-20T01:00:35.211Z,19.30
2019-02-20T01:03:05.672Z,18.10
2019-02-20T01:05:35.258Z,19.70
2019-02-20T01:08:06.508Z,17.77
2019-02-20T01:10:36.124Z,18.80
2019-02-20T01:13:08.407Z,17.60
2019-02-20T01:15:37.974Z,17.00
2019-02-20T01:18:07.823Z,15.47
2019-02-20T01:20:37.384Z,15.80
2019-02-20T01:23:08.418Z,15.63
2019-02-20T01:25:38.040Z,16.13
2019-02-20T01:28:09.366Z,14.30
2019-02-20T01:30:39.002Z,14.77
2019-02-20T01:33:10.776Z,14.70
2019-02-20T01:35:40.327Z,15.43
2019-02-20T01:38:10.996Z,15.13
2019-02-20T01:40:40.651Z,14.53
2019-02-20T01:43:12.489Z,15.20
2019-02-20T01:45:42.289Z,14.40
2019-02-20T01:48:11.922Z,13.40
2019-02-20T01:50:41.488Z,16.23
2019-02-20T01:53:12.039Z,14.50
2019-02-20T01:55:41.619Z,14.20
2019-02-20T01:58:12.293Z,14.20
2019-02-20T02:00:41.994Z,14.60
2019-02-20T02:03:12.776Z,16.00
2019-02-20T02:05:42.336Z,14.57
2019-02-20T02:08:12.841Z,14.57
2019-02-20T02:10:42.455Z,15.63
2019-02-20T02:13:12.767Z,16.07
2019-02-20T02:15:42.375Z,16.97
2019-02-20T02:18:12.846Z,17.00
2019-02-20T02:20:42.406Z,15.13
2019-02-20T02:23:19.806Z,15.87
2019-02-20T02:25:45.245Z,16.23
2019-02-20T02:28:14.928Z,15.60
2019-02-20T02:30:44.596Z,15.37
2019-02-20T02:33:15.011Z,16.67
2019-02-20T02:35:44.654Z,16.63
2019-02-20T02:38:15.137Z,16.50
2019-02-20T02:40:44.730Z,15.90
2019-02-20T02:43:15.100Z,16.70
2019-02-20T02:45:44.709Z,16.90
2019-02-20T02:48:14.921Z,16.50
2019-02-20T02:50:44.912Z,15.70
2019-02-20T02:53:15.196Z,16.83
2019-02-20T02:55:45.023Z,16.83
2019-02-20T02:58:15.161Z,17.40
2019-02-20T03:00:44.868Z,17.57
2019-02-20T03:03:15.154Z,17.10
2019-02-20T03:05:45.262Z,16.53
2019-02-20T03:08:15.580Z,17.67
2019-02-20T03:10:45.338Z,18.73
2019-02-20T03:13:15.659Z,16.63
2019-02-20T03:15:45.365Z,17.83
2019-02-20T03:18:15.673Z,18.27
2019-02-20T03:20:45.377Z,17.73
2019-02-20T03:23:15.029Z,18.60
2019-02-20T03:25:44.707Z,18.03
2019-02-20T03:28:15.012Z,18.47
2019-02-20T03:30:44.632Z,18.00
2019-02-20T03:33:14.992Z,18.47
2019-02-20T03:35:44.715Z,18.03
2019-02-20T03:38:14.990Z,18.60
2019-02-20T03:40:44.693Z,17.63
2019-02-20T03:43:15.072Z,17.47
2019-02-20T03:45:44.727Z,18.13
2019-02-20T03:48:15.014Z,18.80
2019-02-20T03:50:44.996Z,19.07
2019-02-20T03:53:15.313Z,19.37
2019-02-20T03:55:44.982Z,18.90
2019-02-20T03:58:15.540Z,18.10
2019-02-20T04:00:45.247Z,19.03
2019-02-20T04:03:15.570Z,19.30
2019-02-20T04:05:45.315Z,19.30
2019-02-20T04:08:15.631Z,19.10
2019-02-20T04:10:45.325Z,18.47
2019-02-20T04:13:14.898Z,18.63
2019-02-20T04:15:44.548Z,20.33
2019-02-20T04:18:14.880Z,20.93
2019-02-20T04:20:44.600Z,22.30
2019-02-20T04:23:14.918Z,20.37
2019-02-20T04:25:44.608Z,19.40
2019-02-20T04:28:14.968Z,20.57
2019-02-20T04:30:44.640Z,21.50
2019-02-20T04:33:15.008Z,20.00
2019-02-20T04:35:44.697Z,22.37
2019-02-20T04:38:15.007Z,21.57
2019-02-20T04:40:44.735Z,20.00
2019-02-20T04:43:14.323Z,19.87
2019-02-20T04:45:44.019Z,20.53
2019-02-20T04:48:13.659Z,19.83
2019-02-20T04:50:43.484Z,21.17
2019-02-20T04:53:13.897Z,21.70
2019-02-20T04:55:43.981Z,21.40
2019-02-20T04:58:24.261Z,24.00
2019-02-20T05:00:53.954Z,21.33
2019-02-20T05:03:24.317Z,21.77
2019-02-20T05:05:54.020Z,21.97
2019-02-20T05:08:24.311Z,23.30
2019-02-20T05:10:54.017Z,22.77
2019-02-20T05:13:24.350Z,24.57
2019-02-20T05:15:54.912Z,24.40
2019-02-20T05:18:25.346Z,24.33
2019-02-20T05:20:54.983Z,24.83
2019-02-20T05:23:25.484Z,25.70
2019-02-20T05:25:55.071Z,25.83
2019-02-20T05:28:25.554Z,25.80
2019-02-20T05:30:55.187Z,25.07
2019-02-20T05:33:25.095Z,27.20
2019-02-20T05:35:55.720Z,24.27
2019-02-20T05:38:26.758Z,27.30
2019-02-20T05:40:56.397Z,27.07
2019-02-20T05:43:28.347Z,26.00
2019-02-20T05:45:58.332Z,26.73
2019-02-20T05:48:30.113Z,28.00
2019-02-20T05:50:59.673Z,25.20
2019-02-20T05:53:30.087Z,26.20
2019-02-20T05:55:59.674Z,27.63
2019-02-20T05:58:31.442Z,27.40
2019-02-20T06:01:01.464Z,26.37
2019-02-20T06:03:31.690Z,25.80
2019-02-20T06:06:01.648Z,26.60
2019-02-20T06:08:32.127Z,27.57
2019-02-20T06:11:01.810Z,25.73
2019-02-20T06:13:32.693Z,27.50
2019-02-20T06:16:02.247Z,27.20
2019-02-20T06:18:32.785Z,26.80
2019-02-20T06:21:03.487Z,25.80
2019-02-20T06:23:35.045Z,27.83
2019-02-20T06:26:04.821Z,25.10
2019-02-20T06:28:35.517Z,25.13
2019-02-20T06:31:06.251Z,27.70
2019-02-20T06:33:36.766Z,26.43
2019-02-20T06:36:06.423Z,25.30
2019-02-20T06:38:36.839Z,26.10
2019-02-20T06:41:06.476Z,26.47
2019-02-20T06:43:37.256Z,26.67
2019-02-20T06:46:07.001Z,24.87
2019-02-20T06:48:37.491Z,26.57
2019-02-20T06:51:07.238Z,26.77
2019-02-20T06:53:37.772Z,26.73
2019-02-20T06:56:07.438Z,25.80
2019-02-20T06:58:37.968Z,26.47
2019-02-20T07:01:07.647Z,27.50
2019-02-20T07:03:37.409Z,25.20
2019-02-20T07:06:43.200Z,26.80
2019-02-20T07:09:49.451Z,29.13
2019-02-20T07:12:52.299Z,28.17
2019-02-20T07:15:59.175Z,26.90
2019-02-20T07:18:59.544Z,25.90
2019-02-20T07:22:13.187Z,26.57
2019-02-20T07:25:14.061Z,24.83
2019-02-20T07:28:27.271Z,25.53
2019-02-20T07:30:56.927Z,25.53
2019-02-20T07:33:26.942Z,26.23
2019-02-20T07:35:56.839Z,25.80
2019-02-20T07:38:26.490Z,24.87
2019-02-20T07:40:56.147Z,26.13
2019-02-20T07:43:27.021Z,27.13
2019-02-20T07:45:56.574Z,26.40
2019-02-20T07:48:26.975Z,23.63
2019-02-20T07:50:56.645Z,24.87
2019-02-20T07:53:27.087Z,24.83
2019-02-20T07:55:56.791Z,24.17
2019-02-20T07:58:27.476Z,25.90
2019-02-20T08:00:57.079Z,26.07
2019-02-20T08:03:29.543Z,25.40
2019-02-20T08:05:59.965Z,28.73
2019-02-20T08:08:31.279Z,23.90
2019-02-20T08:11:01.046Z,24.17
2019-02-20T08:13:39.109Z,24.20
2019-02-20T08:16:02.805Z,24.47
2019-02-20T08:18:33.291Z,24.53
2019-02-20T08:21:03.019Z,24.70
2019-02-20T08:23:32.827Z,22.30
2019-02-20T08:26:02.780Z,25.10
2019-02-20T08:28:34.121Z,25.70
2019-02-20T08:31:03.833Z,24.10
2019-02-20T08:33:34.218Z,24.63
2019-02-20T08:36:04.175Z,24.37
2019-02-20T08:38:34.687Z,27.57
2019-02-20T08:41:04.387Z,28.43
2019-02-20T08:43:34.496Z,27.00
2019-02-20T08:46:04.553Z,27.77
2019-02-20T08:48:34.169Z,28.10
2019-02-20T08:51:04.975Z,27.00
2019-02-20T08:53:34.973Z,29.00
2019-02-20T08:56:04.702Z,27.50
2019-02-20T08:58:35.103Z,30.63
2019-02-20T09:01:05.067Z,30.60
2019-02-20T09:03:34.761Z,26.47
2019-02-20T09:06:05.621Z,28.80
2019-02-20T09:08:35.931Z,28.17
2019-02-20T09:11:05.643Z,25.80
2019-02-20T09:13:36.013Z,29.07
2019-02-20T09:16:05.822Z,27.17
2019-02-20T09:18:35.447Z,28.57
2019-02-20T09:21:05.200Z,28.57
2019-02-20T09:23:35.531Z,26.80
2019-02-20T09:26:05.236Z,27.40
2019-02-20T09:28:37.189Z,26.10
2019-02-20T09:31:07.125Z,26.50
2019-02-20T09:33:36.757Z,26.70
2019-02-20T09:36:06.609Z,34.73
2019-02-20T09:38:36.320Z,24.67
2019-02-20T09:41:05.986Z,25.90
2019-02-20T09:43:36.268Z,28.00
2019-02-20T09:46:06.093Z,27.03
2019-02-20T09:48:36.423Z,26.00
2019-02-20T09:51:06.215Z,26.57
2019-02-20T09:53:36.608Z,26.00
2019-02-20T09:56:06.394Z,24.00
2019-02-20T09:58:36.954Z,29.90
2019-02-20T10:01:06.752Z,26.77
2019-02-20T10:03:37.133Z,28.40
2019-02-20T10:06:06.802Z,26.27
2019-02-20T10:08:37.128Z,28.27
2019-02-20T10:11:06.919Z,29.63
2019-02-20T10:13:37.340Z,29.83
2019-02-20T10:16:07.348Z,29.23
2019-02-20T10:18:37.912Z,28.03
2019-02-20T10:21:07.651Z,27.37
2019-02-20T10:23:38.042Z,29.97
2019-02-20T10:26:08.188Z,29.40
2019-02-20T10:28:38.460Z,26.27
2019-02-20T10:31:08.340Z,25.90
2019-02-20T10:33:38.723Z,25.90
2019-02-20T10:36:08.475Z,25.73
2019-02-20T10:38:38.863Z,25.80
2019-02-20T10:41:10.387Z,26.80
2019-02-20T10:43:41.051Z,27.47
2019-02-20T10:46:10.787Z,25.50
2019-02-20T10:48:41.155Z,25.37
2019-02-20T10:51:11.645Z,29.27
2019-02-20T10:53:41.295Z,28.10
2019-02-20T10:56:11.056Z,32.27
2019-02-20T10:58:41.606Z,28.20
2019-02-20T11:01:11.345Z,25.90
2019-02-20T11:03:41.052Z,24.40
2019-02-20T11:06:10.897Z,28.20
2019-02-20T11:08:41.347Z,26.90
2019-02-20T11:11:11.184Z,28.03
2019-02-20T11:13:41.605Z,25.27
2019-02-20T11:16:12.033Z,26.73
2019-02-20T11:18:42.568Z,24.63
2019-02-20T11:21:12.219Z,24.73
2019-02-20T11:23:42.691Z,23.93
2019-02-20T11:26:18.333Z,25.73
2019-02-20T11:28:43.910Z,24.70
2019-02-20T11:31:13.637Z,24.07
2019-02-20T11:33:43.664Z,24.50
2019-02-20T11:36:13.400Z,23.37
2019-02-20T11:38:43.887Z,25.30
2019-02-20T11:41:14.010Z,27.27
2019-02-20T11:43:44.558Z,29.40
2019-02-20T11:46:14.316Z,28.07
2019-02-20T11:48:44.127Z,29.80
2019-02-20T11:51:13.811Z,28.73
2019-02-20T11:53:46.096Z,29.13
2019-02-20T11:56:15.887Z,24.40
2019-02-20T11:58:47.127Z,22.93
2019-02-20T12:01:16.875Z,23.67
2019-02-20T12:03:46.754Z,24.13
2019-02-20T12:06:16.560Z,25.33
2019-02-20T12:08:46.684Z,24.60
2019-02-20T12:11:16.694Z,23.50
2019-02-20T12:13:46.513Z,23.70
2019-02-20T12:16:16.230Z,23.43
2019-02-20T12:18:46.037Z,22.70
2019-02-20T12:21:15.726Z,23.27
2019-02-20T12:23:46.214Z,24.10
2019-02-20T12:26:15.946Z,24.47
2019-02-20T12:28:47.224Z,24.90
2019-02-20T12:31:16.959Z,24.50
2019-02-20T12:33:47.482Z,25.83
2019-02-20T12:36:17.187Z,27.07
2019-02-20T12:38:47.745Z,27.50
2019-02-20T12:41:18.921Z,27.07
2019-02-20T12:43:48.567Z,24.23
2019-02-20T12:46:18.336Z,24.13
2019-02-20T12:48:48.949Z,23.10
2019-02-20T12:51:18.824Z,24.57
2019-02-20T12:53:49.211Z,21.33
2019-02-20T12:56:18.964Z,19.40
2019-02-20T12:58:49.584Z,18.63
2019-02-20T13:01:19.480Z,19.67
2019-02-20T13:03:49.711Z,17.30
2019-02-20T13:06:19.524Z,19.07
2019-02-20T13:08:51.181Z,18.20
2019-02-20T13:11:21.295Z,19.50
2019-02-20T13:13:51.734Z,18.20
2019-02-20T13:16:21.543Z,17.70
2019-02-20T13:18:51.940Z,19.50
2019-02-20T13:21:21.707Z,19.47
2019-02-20T13:23:52.412Z,19.20
2019-02-20T13:26:22.124Z,18.20
2019-02-20T13:28:52.546Z,19.70
2019-02-20T13:31:22.381Z,19.60
2019-02-20T13:33:52.655Z,19.40
2019-02-20T13:36:22.311Z,19.53
2019-02-20T13:38:52.073Z,21.80
2019-02-20T13:41:21.821Z,18.93
2019-02-20T13:43:51.527Z,18.27
2019-02-20T13:46:21.169Z,19.60
2019-02-20T13:48:51.602Z,19.53
2019-02-20T13:51:21.281Z,18.13
2019-02-20T13:53:51.874Z,18.43
2019-02-20T13:56:21.438Z,18.23
2019-02-20T13:58:52.050Z,17.83
2019-02-20T14:01:21.716Z,17.50
2019-02-20T14:03:53.188Z,17.90
2019-02-20T14:06:23.020Z,17.27
2019-02-20T14:08:53.456Z,18.27
2019-02-20T14:11:23.118Z,18.50
2019-02-20T14:13:53.212Z,17.37
2019-02-20T14:16:22.781Z,17.27
2019-02-20T14:18:52.473Z,16.60
2019-02-20T14:21:22.357Z,16.63
2019-02-20T14:23:52.918Z,16.93
2019-02-20T14:26:22.552Z,16.30
2019-02-20T14:28:52.222Z,16.17
2019-02-20T14:31:21.938Z,17.17
2019-02-20T14:33:51.761Z,18.10
2019-02-20T14:36:21.376Z,17.33
2019-02-20T14:38:51.396Z,15.60
2019-02-20T14:41:21.496Z,17.47
2019-02-20T14:43:51.023Z,17.20
2019-02-20T14:46:20.833Z,17.10
2019-02-20T14:48:51.227Z,20.37
2019-02-20T14:51:21.111Z,16.40
2019-02-20T14:53:51.596Z,17.97
2019-02-20T14:56:21.265Z,17.63
2019-02-20T14:58:51.769Z,17.00
2019-02-20T15:01:21.795Z,16.40
2019-02-20T15:03:51.969Z,17.73
2019-02-20T15:06:21.793Z,17.60
2019-02-20T15:08:52.451Z,19.03
2019-02-20T15:11:22.172Z,16.30
2019-02-20T15:13:53.642Z,16.70
2019-02-20T15:16:23.284Z,17.70
2019-02-20T15:18:52.994Z,17.87
2019-02-20T15:21:22.719Z,18.10
2019-02-20T15:23:53.187Z,18.80
2019-02-20T15:26:22.829Z,18.90
2019-02-20T15:28:54.774Z,18.90
2019-02-20T15:31:33.224Z,20.40
2019-02-20T15:33:56.877Z,20.17
2019-02-20T15:36:26.751Z,19.30
2019-02-20T15:38:57.170Z,19.97
2019-02-20T15:41:26.736Z,19.03
2019-02-20T15:43:57.204Z,18.60
2019-02-20T15:46:26.971Z,18.97
2019-02-20T15:48:56.801Z,18.30
2019-02-20T15:51:28.307Z,19.63
2019-02-20T15:53:58.845Z,18.90
2019-02-20T15:56:28.562Z,20.70
2019-02-20T15:58:58.604Z,19.37
2019-02-20T16:01:28.253Z,20.67
2019-02-20T16:03:58.497Z,20.10
2019-02-20T16:06:28.230Z,20.20
2019-02-20T16:08:58.567Z,18.90
2019-02-20T16:11:28.216Z,19.80
2019-02-20T16:13:58.507Z,19.63
2019-02-20T16:16:28.336Z,18.60
2019-02-20T16:18:58.467Z,19.63
2019-02-20T16:21:29.571Z,19.53
2019-02-20T16:24:00.004Z,20.10
2019-02-20T16:26:29.651Z,19.33
2019-02-20T16:28:59.327Z,17.87
2019-02-20T16:31:28.975Z,19.03
2019-02-20T16:33:59.557Z,21.17
2019-02-20T16:36:29.302Z,18.47
2019-02-20T16:39:00.680Z,20.30
2019-02-20T16:41:30.545Z,18.47
2019-02-20T16:44:00.134Z,18.03
2019-02-20T16:46:30.668Z,21.67
2019-02-20T16:49:00.649Z,19.07
2019-02-20T16:51:30.555Z,19.73
2019-02-20T16:54:00.786Z,20.27
2019-02-20T16:56:30.532Z,20.57
2019-02-20T16:59:00.860Z,19.50
2019-02-20T17:01:30.616Z,18.93
2019-02-20T17:04:01.157Z,19.87
2019-02-20T17:06:30.980Z,20.10
2019-02-20T17:09:00.843Z,18.50
2019-02-20T17:11:31.259Z,20.43
2019-02-20T17:14:01.830Z,19.23
2019-02-20T17:16:31.693Z,19.57
2019-02-20T17:19:01.885Z,19.20
2019-02-20T17:21:32.717Z,19.60
2019-02-20T17:24:04.578Z,18.73
2019-02-20T17:26:34.773Z,19.13
2019-02-20T17:29:05.149Z,19.50
2019-02-20T17:31:34.958Z,19.07
2019-02-20T17:34:04.899Z,19.23
2019-02-20T17:36:34.648Z,20.00
2019-02-20T17:39:07.255Z,20.50
2019-02-20T17:41:36.792Z,21.20
2019-02-20T17:44:06.475Z,20.90
2019-02-20T17:46:36.612Z,21.30
2019-02-20T17:49:06.473Z,19.57
2019-02-20T17:51:36.606Z,22.17
2019-02-20T17:54:06.756Z,20.63
2019-02-20T17:56:36.668Z,20.43
2019-02-20T17:59:07.592Z,20.33
2019-02-20T18:01:37.305Z,20.23
2019-02-20T18:04:07.647Z,23.10
2019-02-20T18:06:37.660Z,21.47
2019-02-20T18:09:10.373Z,20.37
2019-02-20T18:11:40.305Z,21.97
2019-02-20T18:14:10.092Z,22.53
2019-02-20T18:16:40.694Z,23.00
2019-02-20T18:19:10.683Z,22.03
2019-02-20T18:21:40.519Z,20.90
2019-02-20T18:24:10.347Z,21.83
2019-02-20T18:26:40.156Z,21.60
2019-02-20T18:29:10.963Z,22.70
2019-02-20T18:31:40.775Z,23.60
2019-02-20T18:34:11.348Z,22.80
2019-02-20T18:36:41.120Z,21.37
2019-02-20T18:39:10.879Z,21.57
2019-02-20T18:41:40.580Z,20.23
2019-02-20T18:44:10.446Z,21.93
2019-02-20T18:46:40.112Z,23.10
2019-02-20T18:49:10.103Z,21.80
2019-02-20T18:51:40.181Z,22.40
2019-02-20T18:54:10.092Z,21.50
2019-02-20T18:56:39.845Z,25.23
2019-02-20T18:59:09.543Z,21.50
2019-02-20T19:01:39.471Z,21.97
2019-02-20T19:04:09.499Z,20.50
2019-02-20T19:06:39.222Z,21.43
2019-02-20T19:09:16.652Z,22.40
2019-02-20T19:12:48.228Z,22.60
2019-02-20T19:15:49.118Z,21.47
2019-02-20T19:19:10.090Z,21.83
2019-02-20T19:22:33.068Z,22.20
2019-02-20T19:25:41.722Z,22.50
2019-02-20T19:28:44.092Z,22.90
2019-02-20T19:31:51.047Z,22.13
2019-02-20T19:35:14.318Z,24.77
2019-02-20T19:38:27.199Z,25.37
2019-02-20T19:41:22.458Z,27.77
2019-02-20T19:44:55.234Z,27.90
2019-02-20T19:47:46.439Z,27.50
2019-02-20T19:50:33.205Z,27.10
2019-02-20T19:53:37.671Z,28.80
2019-02-20T19:56:34.103Z,28.43
2019-02-20T19:59:52.901Z,28.57
2019-02-20T20:02:48.725Z,27.63
2019-02-20T20:06:23.984Z,27.20
2019-02-20T20:09:19.791Z,24.50
2019-02-20T20:12:16.884Z,24.80
2019-02-20T20:15:27.377Z,26.27
2019-02-20T20:18:32.511Z,25.30
2019-02-20T20:21:35.807Z,24.60
2019-02-20T20:24:52.625Z,24.60
2019-02-20T20:27:56.711Z,23.30
2019-02-20T20:30:54.268Z,26.10
2019-02-20T20:39:04.994Z,22.90
2019-02-20T20:42:10.746Z,23.70
2019-02-20T20:50:40.602Z,25.07
2019-02-20T20:53:28.187Z,23.60
2019-02-20T20:56:24.199Z,28.20
2019-02-20T20:59:02.293Z,23.07
2019-02-20T21:01:45.523Z,25.17
2019-02-20T21:04:57.551Z,25.23
2019-02-20T21:07:51.048Z,24.30
2019-02-20T21:10:46.496Z,22.90
2019-02-20T21:14:07.180Z,23.23
2019-02-20T21:17:08.205Z,22.77
2019-02-20T21:20:09.523Z,23.03
2019-02-20T21:23:20.605Z,22.50
2019-02-20T21:26:22.581Z,22.43
2019-02-20T21:29:28.109Z,22.37
2019-02-20T21:32:23.182Z,23.13
2019-02-20T21:35:18.798Z,22.17
2019-02-20T21:38:30.357Z,21.60
2019-02-20T21:41:42.504Z,23.70
2019-02-20T21:44:38.072Z,22.80
2019-02-20T21:47:33.279Z,21.03
2019-02-20T21:50:31.663Z,20.70
2019-02-20T21:53:38.807Z,21.40
2019-02-20T21:56:47.952Z,20.70
2019-02-20T22:00:03.059Z,20.67
2019-02-20T22:03:17.172Z,21.80
2019-02-20T22:06:30.670Z,21.60
2019-02-20T22:09:41.138Z,22.53
2019-02-20T22:12:50.948Z,22.20
2019-02-20T22:15:39.777Z,24.00
2019-02-20T22:18:37.867Z,22.53
2019-02-20T22:21:35.332Z,21.70
2019-02-20T22:24:25.775Z,21.80
2019-02-20T22:27:45.371Z,23.40
2019-02-20T22:30:57.155Z,22.57
2019-02-20T22:33:54.402Z,23.13
2019-02-20T22:37:13.975Z,23.40
2019-02-20T22:40:14.849Z,23.23
2019-02-20T22:43:35.802Z,23.33
2019-02-20T22:47:04.167Z,23.07
2019-02-20T22:49:58.147Z,23.27
2019-02-20T22:52:51.658Z,24.50
2019-02-20T22:56:08.428Z,22.63
2019-02-20T22:58:53.707Z,22.80
2019-02-20T23:02:03.397Z,24.67
2019-02-20T23:04:49.276Z,24.20
2019-02-20T23:08:02.553Z,23.73
2019-02-20T23:11:00.565Z,25.00
2019-02-20T23:13:55.623Z,25.03
2019-02-20T23:16:25.191Z,24.33
2019-02-20T23:18:54.694Z,23.83
2019-02-20T23:21:24.270Z,23.70
2019-02-20T23:23:54.209Z,23.70
2019-02-20T23:26:23.712Z,25.20
2019-02-20T23:28:53.327Z,24.80
2019-02-20T23:31:22.832Z,23.03
2019-02-20T23:33:52.462Z,25.90
2019-02-20T23:36:21.880Z,24.80
2019-02-20T23:38:51.447Z,23.87
2019-02-20T23:41:20.969Z,23.53
2019-02-20T23:43:50.581Z,26.43
2019-02-20T23:46:20.132Z,24.50
2019-02-20T23:48:49.686Z,24.47
2019-02-20T23:51:19.195Z,23.20
2019-02-20T23:53:48.836Z,23.87
2019-02-20T23:56:18.357Z,24.67
2019-02-20T23:58:47.986Z,23.23
